sensor_id;sensor_type;location;lat;lon;timestamp;temperature;humidity
44215;DHT22;29884;47.450;19.124;2023-02-02T00:01:53;4.40;99.90
44215;DHT22;29884;47.450;19.124;2023-02-02T00:04:21;4.50;99.90
44215;DHT22;29884;47.450;19.124;2023-02-02T00:06:47;4.50;99.90
44215;DHT22;29884;47.450;19.124;2023-02-02T00:09:15;4.40;99.90
44215;DHT22;29884;47.450;19.124;2023-02-02T00:11:42;4.50;99.90
44215;DHT22;29884;47.450;19.124;2023-02-02T00:14:08;4.50;99.90
44215;DHT22;29884;47.450;19.124;2023-02-02T00:16:42;4.60;99.90
44215;DHT22;29884;47.450;19.124;2023-02-02T00:19:12;4.60;99.90
44215;DHT22;29884;47.450;19.124;2023-02-02T00:21:38;4.70;99.90
44215;DHT22;29884;47.450;19.124;2023-02-02T00:24:06;4.70;99.90
44215;DHT22;29884;47.450;19.124;2023-02-02T00:26:32;4.80;99.90
44215;DHT22;29884;47.450;19.124;2023-02-02T00:28:57;4.80;99.90
44215;DHT22;29884;47.450;19.124;2023-02-02T00:31:23;4.80;99.90
44215;DHT22;29884;47.450;19.124;2023-02-02T00:33:50;4.70;99.90
44215;DHT22;29884;47.450;19.124;2023-02-02T00:36:16;4.70;99.90
44215;DHT22;29884;47.450;19.124;2023-02-02T00:38:42;4.80;99.90
44215;DHT22;29884;47.450;19.124;2023-02-02T00:41:08;4.80;99.90
44215;DHT22;29884;47.450;19.124;2023-02-02T00:43:34;4.80;99.90
44215;DHT22;29884;47.450;19.124;2023-02-02T00:46:00;4.80;99.90
44215;DHT22;29884;47.450;19.124;2023-02-02T00:48:25;4.80;99.90
44215;DHT22;29884;47.450;19.124;2023-02-02T00:50:52;4.70;99.90
44215;DHT22;29884;47.450;19.124;2023-02-02T00:53:18;4.70;99.90
44215;DHT22;29884;47.450;19.124;2023-02-02T00:55:44;4.70;99.90
44215;DHT22;29884;47.450;19.124;2023-02-02T00:58:10;4.70;99.90
44215;DHT22;29884;47.450;19.124;2023-02-02T01:00:35;4.80;99.90
44215;DHT22;29884;47.450;19.124;2023-02-02T01:03:02;4.80;99.90
44215;DHT22;29884;47.450;19.124;2023-02-02T01:05:35;4.90;99.90
44215;DHT22;29884;47.450;19.124;2023-02-02T01:08:01;4.90;99.90
44215;DHT22;29884;47.450;19.124;2023-02-02T01:10:26;5.10;99.90
44215;DHT22;29884;47.450;19.124;2023-02-02T01:12:52;5.10;99.90
44215;DHT22;29884;47.450;19.124;2023-02-02T01:15:18;5.00;99.90
44215;DHT22;29884;47.450;19.124;2023-02-02T01:17:44;5.00;99.90
44215;DHT22;29884;47.450;19.124;2023-02-02T01:20:16;5.00;99.90
44215;DHT22;29884;47.450;19.124;2023-02-02T01:22:42;4.90;99.90
44215;DHT22;29884;47.450;19.124;2023-02-02T01:25:08;4.90;99.90
44215;DHT22;29884;47.450;19.124;2023-02-02T01:27:34;4.80;99.90
44215;DHT22;29884;47.450;19.124;2023-02-02T01:30:00;4.70;99.90
44215;DHT22;29884;47.450;19.124;2023-02-02T01:32:25;4.60;99.90
44215;DHT22;29884;47.450;19.124;2023-02-02T01:34:51;4.60;99.90
44215;DHT22;29884;47.450;19.124;2023-02-02T01:37:17;4.60;99.90
44215;DHT22;29884;47.450;19.124;2023-02-02T01:39:43;4.50;99.90
44215;DHT22;29884;47.450;19.124;2023-02-02T01:42:13;4.50;99.90
44215;DHT22;29884;47.450;19.124;2023-02-02T01:47:37;4.40;99.90
44215;DHT22;29884;47.450;19.124;2023-02-02T01:50:05;4.40;99.90
44215;DHT22;29884;47.450;19.124;2023-02-02T01:52:32;4.40;99.90
44215;DHT22;29884;47.450;19.124;2023-02-02T01:55:02;4.40;99.90
44215;DHT22;29884;47.450;19.124;2023-02-02T02:00:07;4.40;99.90
44215;DHT22;29884;47.450;19.124;2023-02-02T02:02:33;4.40;99.90
44215;DHT22;29884;47.450;19.124;2023-02-02T02:05:00;4.30;99.90
44215;DHT22;29884;47.450;19.124;2023-02-02T02:07:27;4.30;99.90
44215;DHT22;29884;47.450;19.124;2023-02-02T02:09:53;4.30;99.90
44215;DHT22;29884;47.450;19.124;2023-02-02T02:12:19;4.30;99.90
44215;DHT22;29884;47.450;19.124;2023-02-02T02:14:47;4.50;99.90
44215;DHT22;29884;47.450;19.124;2023-02-02T02:17:51;4.40;99.90
44215;DHT22;29884;47.450;19.124;2023-02-02T02:23:40;4.40;99.90
44215;DHT22;29884;47.450;19.124;2023-02-02T02:31:54;4.30;99.90
44215;DHT22;29884;47.450;19.124;2023-02-02T02:37:10;4.30;99.90
44215;DHT22;29884;47.450;19.124;2023-02-02T02:39:51;4.20;99.90
44215;DHT22;29884;47.450;19.124;2023-02-02T02:42:24;4.30;99.90
44215;DHT22;29884;47.450;19.124;2023-02-02T02:44:52;4.20;99.90
44215;DHT22;29884;47.450;19.124;2023-02-02T02:47:19;4.20;99.90
44215;DHT22;29884;47.450;19.124;2023-02-02T02:49:46;4.10;99.90
44215;DHT22;29884;47.450;19.124;2023-02-02T02:52:13;4.10;99.90
44215;DHT22;29884;47.450;19.124;2023-02-02T02:54:59;4.10;99.90
44215;DHT22;29884;47.450;19.124;2023-02-02T02:57:54;4.10;99.90
44215;DHT22;29884;47.450;19.124;2023-02-02T03:06:10;3.90;99.90
44215;DHT22;29884;47.450;19.124;2023-02-02T03:08:43;3.90;99.90
44215;DHT22;29884;47.450;19.124;2023-02-02T03:11:12;3.90;99.90
44215;DHT22;29884;47.450;19.124;2023-02-02T03:13:39;3.90;99.90
44215;DHT22;29884;47.450;19.124;2023-02-02T03:16:05;3.90;99.90
44215;DHT22;29884;47.450;19.124;2023-02-02T03:18:32;3.90;99.90
44215;DHT22;29884;47.450;19.124;2023-02-02T03:20:58;3.80;99.90
44215;DHT22;29884;47.450;19.124;2023-02-02T03:23:24;3.80;99.90
44215;DHT22;29884;47.450;19.124;2023-02-02T03:25:50;3.90;99.90
44215;DHT22;29884;47.450;19.124;2023-02-02T03:28:17;3.80;99.90
44215;DHT22;29884;47.450;19.124;2023-02-02T03:30:43;3.80;99.90
44215;DHT22;29884;47.450;19.124;2023-02-02T03:33:11;3.80;99.90
44215;DHT22;29884;47.450;19.124;2023-02-02T03:35:36;3.70;99.90
44215;DHT22;29884;47.450;19.124;2023-02-02T03:38:02;3.80;99.90
44215;DHT22;29884;47.450;19.124;2023-02-02T03:40:28;3.80;99.90
44215;DHT22;29884;47.450;19.124;2023-02-02T03:42:54;3.80;99.90
44215;DHT22;29884;47.450;19.124;2023-02-02T03:45:20;3.80;99.90
44215;DHT22;29884;47.450;19.124;2023-02-02T03:47:46;3.80;99.90
44215;DHT22;29884;47.450;19.124;2023-02-02T03:50:12;3.70;99.90
44215;DHT22;29884;47.450;19.124;2023-02-02T03:52:38;3.70;99.90
44215;DHT22;29884;47.450;19.124;2023-02-02T03:55:05;3.60;99.90
44215;DHT22;29884;47.450;19.124;2023-02-02T03:57:31;3.60;99.90
44215;DHT22;29884;47.450;19.124;2023-02-02T03:59:56;3.60;99.90
44215;DHT22;29884;47.450;19.124;2023-02-02T04:02:22;3.60;99.90
44215;DHT22;29884;47.450;19.124;2023-02-02T04:04:48;3.50;99.90
44215;DHT22;29884;47.450;19.124;2023-02-02T04:07:14;3.50;99.90
44215;DHT22;29884;47.450;19.124;2023-02-02T04:09:40;3.50;99.90
44215;DHT22;29884;47.450;19.124;2023-02-02T04:12:06;3.50;99.90
44215;DHT22;29884;47.450;19.124;2023-02-02T04:14:31;3.40;99.90
44215;DHT22;29884;47.450;19.124;2023-02-02T04:16:57;3.40;99.90
44215;DHT22;29884;47.450;19.124;2023-02-02T04:19:23;3.40;99.90
44215;DHT22;29884;47.450;19.124;2023-02-02T04:21:49;3.30;99.90
44215;DHT22;29884;47.450;19.124;2023-02-02T04:24:14;3.30;99.90
44215;DHT22;29884;47.450;19.124;2023-02-02T04:26:41;3.30;99.90
44215;DHT22;29884;47.450;19.124;2023-02-02T04:29:07;3.30;99.90
44215;DHT22;29884;47.450;19.124;2023-02-02T04:31:33;3.30;99.90
44215;DHT22;29884;47.450;19.124;2023-02-02T04:33:58;3.30;99.90
44215;DHT22;29884;47.450;19.124;2023-02-02T04:36:24;3.30;99.90
44215;DHT22;29884;47.450;19.124;2023-02-02T04:38:51;3.30;99.90
44215;DHT22;29884;47.450;19.124;2023-02-02T04:41:18;3.30;99.90
44215;DHT22;29884;47.450;19.124;2023-02-02T04:43:45;3.30;99.90
44215;DHT22;29884;47.450;19.124;2023-02-02T04:46:11;3.20;99.90
44215;DHT22;29884;47.450;19.124;2023-02-02T04:48:37;3.30;99.90
44215;DHT22;29884;47.450;19.124;2023-02-02T04:51:05;3.20;99.90
44215;DHT22;29884;47.450;19.124;2023-02-02T04:53:32;3.20;99.90
44215;DHT22;29884;47.450;19.124;2023-02-02T04:56:13;3.20;99.90
44215;DHT22;29884;47.450;19.124;2023-02-02T04:58:40;3.20;99.90
44215;DHT22;29884;47.450;19.124;2023-02-02T05:01:17;3.10;99.90
44215;DHT22;29884;47.450;19.124;2023-02-02T05:03:43;3.10;99.90
44215;DHT22;29884;47.450;19.124;2023-02-02T05:06:10;3.10;99.90
44215;DHT22;29884;47.450;19.124;2023-02-02T05:08:36;3.10;99.90
44215;DHT22;29884;47.450;19.124;2023-02-02T05:11:09;3.10;99.90
44215;DHT22;29884;47.450;19.124;2023-02-02T05:13:35;3.10;99.90
44215;DHT22;29884;47.450;19.124;2023-02-02T05:16:01;3.10;99.90
44215;DHT22;29884;47.450;19.124;2023-02-02T05:18:27;3.10;99.90
44215;DHT22;29884;47.450;19.124;2023-02-02T05:20:53;3.10;99.90
44215;DHT22;29884;47.450;19.124;2023-02-02T05:23:19;3.10;99.90
44215;DHT22;29884;47.450;19.124;2023-02-02T05:25:51;3.20;99.90
44215;DHT22;29884;47.450;19.124;2023-02-02T05:28:18;3.20;99.90
44215;DHT22;29884;47.450;19.124;2023-02-02T05:30:44;3.20;99.90
44215;DHT22;29884;47.450;19.124;2023-02-02T05:33:09;3.30;99.90
44215;DHT22;29884;47.450;19.124;2023-02-02T05:35:35;3.30;99.90
44215;DHT22;29884;47.450;19.124;2023-02-02T05:38:02;3.30;99.90
44215;DHT22;29884;47.450;19.124;2023-02-02T05:40:27;3.30;99.90
44215;DHT22;29884;47.450;19.124;2023-02-02T05:42:53;3.40;99.90
44215;DHT22;29884;47.450;19.124;2023-02-02T05:45:19;3.30;99.90
44215;DHT22;29884;47.450;19.124;2023-02-02T05:47:45;3.30;99.90
44215;DHT22;29884;47.450;19.124;2023-02-02T05:50:10;3.30;99.90
44215;DHT22;29884;47.450;19.124;2023-02-02T05:52:37;3.20;99.90
44215;DHT22;29884;47.450;19.124;2023-02-02T05:55:04;3.20;99.90
44215;DHT22;29884;47.450;19.124;2023-02-02T05:57:30;3.20;99.90
44215;DHT22;29884;47.450;19.124;2023-02-02T05:59:56;3.10;99.90
44215;DHT22;29884;47.450;19.124;2023-02-02T06:02:22;3.10;99.90
44215;DHT22;29884;47.450;19.124;2023-02-02T06:04:47;3.10;99.90
44215;DHT22;29884;47.450;19.124;2023-02-02T06:07:13;3.00;99.90
44215;DHT22;29884;47.450;19.124;2023-02-02T06:09:39;3.00;99.90
44215;DHT22;29884;47.450;19.124;2023-02-02T06:12:04;2.90;99.90
44215;DHT22;29884;47.450;19.124;2023-02-02T06:14:30;2.90;99.90
44215;DHT22;29884;47.450;19.124;2023-02-02T06:16:56;2.90;99.90
44215;DHT22;29884;47.450;19.124;2023-02-02T06:19:22;2.90;99.90
44215;DHT22;29884;47.450;19.124;2023-02-02T06:21:48;2.90;99.90
44215;DHT22;29884;47.450;19.124;2023-02-02T06:24:14;2.90;99.90
44215;DHT22;29884;47.450;19.124;2023-02-02T06:26:39;2.90;99.90
44215;DHT22;29884;47.450;19.124;2023-02-02T06:29:05;2.90;99.90
44215;DHT22;29884;47.450;19.124;2023-02-02T06:31:31;2.80;99.90
44215;DHT22;29884;47.450;19.124;2023-02-02T06:33:58;2.80;99.90
44215;DHT22;29884;47.450;19.124;2023-02-02T06:36:25;2.80;99.90
44215;DHT22;29884;47.450;19.124;2023-02-02T06:38:53;2.80;99.90
44215;DHT22;29884;47.450;19.124;2023-02-02T06:41:19;2.80;99.90
44215;DHT22;29884;47.450;19.124;2023-02-02T06:43:46;2.90;99.90
44215;DHT22;29884;47.450;19.124;2023-02-02T06:46:12;3.00;99.90
44215;DHT22;29884;47.450;19.124;2023-02-02T06:48:38;3.00;99.90
44215;DHT22;29884;47.450;19.124;2023-02-02T06:51:04;3.10;99.90
44215;DHT22;29884;47.450;19.124;2023-02-02T06:53:31;3.30;99.90
44215;DHT22;29884;47.450;19.124;2023-02-02T06:56:01;3.40;99.90
44215;DHT22;29884;47.450;19.124;2023-02-02T06:58:28;3.60;99.90
44215;DHT22;29884;47.450;19.124;2023-02-02T07:00:59;3.60;99.90
44215;DHT22;29884;47.450;19.124;2023-02-02T07:03:25;3.70;99.90
44215;DHT22;29884;47.450;19.124;2023-02-02T07:05:51;3.80;99.90
44215;DHT22;29884;47.450;19.124;2023-02-02T07:08:16;3.80;99.90
44215;DHT22;29884;47.450;19.124;2023-02-02T07:10:42;3.90;99.90
44215;DHT22;29884;47.450;19.124;2023-02-02T07:13:09;3.90;99.90
44215;DHT22;29884;47.450;19.124;2023-02-02T07:15:37;3.90;99.90
44215;DHT22;29884;47.450;19.124;2023-02-02T07:18:03;3.90;99.90
44215;DHT22;29884;47.450;19.124;2023-02-02T07:20:29;4.00;99.90
44215;DHT22;29884;47.450;19.124;2023-02-02T07:22:55;4.00;99.90
44215;DHT22;29884;47.450;19.124;2023-02-02T07:25:21;4.10;99.90
44215;DHT22;29884;47.450;19.124;2023-02-02T07:27:46;4.00;99.90
44215;DHT22;29884;47.450;19.124;2023-02-02T07:30:13;4.10;99.90
44215;DHT22;29884;47.450;19.124;2023-02-02T07:32:39;4.10;99.90
44215;DHT22;29884;47.450;19.124;2023-02-02T07:35:10;4.10;99.90
44215;DHT22;29884;47.450;19.124;2023-02-02T07:37:36;4.10;99.90
44215;DHT22;29884;47.450;19.124;2023-02-02T07:40:01;4.10;99.90
44215;DHT22;29884;47.450;19.124;2023-02-02T07:42:27;4.10;99.90
44215;DHT22;29884;47.450;19.124;2023-02-02T07:44:53;4.10;99.90
44215;DHT22;29884;47.450;19.124;2023-02-02T07:47:19;4.20;99.90
44215;DHT22;29884;47.450;19.124;2023-02-02T07:49:44;4.20;99.90
44215;DHT22;29884;47.450;19.124;2023-02-02T07:52:10;4.30;99.90
44215;DHT22;29884;47.450;19.124;2023-02-02T07:54:36;4.30;99.90
44215;DHT22;29884;47.450;19.124;2023-02-02T07:57:01;4.40;99.90
44215;DHT22;29884;47.450;19.124;2023-02-02T07:59:27;4.40;99.90
44215;DHT22;29884;47.450;19.124;2023-02-02T08:01:53;4.50;99.90
44215;DHT22;29884;47.450;19.124;2023-02-02T08:04:18;4.60;99.90
44215;DHT22;29884;47.450;19.124;2023-02-02T08:06:44;4.70;99.90
44215;DHT22;29884;47.450;19.124;2023-02-02T08:09:10;4.70;99.90
44215;DHT22;29884;47.450;19.124;2023-02-02T08:11:37;4.80;99.90
44215;DHT22;29884;47.450;19.124;2023-02-02T08:14:03;4.90;99.90
44215;DHT22;29884;47.450;19.124;2023-02-02T08:16:31;4.80;99.90
44215;DHT22;29884;47.450;19.124;2023-02-02T08:18:57;4.70;99.90
44215;DHT22;29884;47.450;19.124;2023-02-02T08:21:23;4.80;99.90
44215;DHT22;29884;47.450;19.124;2023-02-02T08:23:51;4.70;99.90
44215;DHT22;29884;47.450;19.124;2023-02-02T08:28:48;4.90;99.90
44215;DHT22;29884;47.450;19.124;2023-02-02T08:31:18;5.00;99.90
44215;DHT22;29884;47.450;19.124;2023-02-02T08:33:44;5.10;99.90
44215;DHT22;29884;47.450;19.124;2023-02-02T08:36:15;5.00;99.90
44215;DHT22;29884;47.450;19.124;2023-02-02T08:38:41;5.10;99.90
44215;DHT22;29884;47.450;19.124;2023-02-02T08:41:10;5.00;99.90
44215;DHT22;29884;47.450;19.124;2023-02-02T08:43:37;5.10;99.90
44215;DHT22;29884;47.450;19.124;2023-02-02T08:46:04;5.10;99.90
44215;DHT22;29884;47.450;19.124;2023-02-02T08:48:30;5.20;99.90
44215;DHT22;29884;47.450;19.124;2023-02-02T08:50:57;5.30;99.90
44215;DHT22;29884;47.450;19.124;2023-02-02T08:53:25;5.40;99.90
44215;DHT22;29884;47.450;19.124;2023-02-02T08:56:04;5.50;99.90
44215;DHT22;29884;47.450;19.124;2023-02-02T08:58:31;5.50;99.90
44215;DHT22;29884;47.450;19.124;2023-02-02T09:01:14;5.60;99.90
44215;DHT22;29884;47.450;19.124;2023-02-02T09:03:41;5.70;99.90
44215;DHT22;29884;47.450;19.124;2023-02-02T09:06:10;5.70;99.90
44215;DHT22;29884;47.450;19.124;2023-02-02T09:08:36;5.80;99.90
44215;DHT22;29884;47.450;19.124;2023-02-02T09:11:13;5.90;99.90
44215;DHT22;29884;47.450;19.124;2023-02-02T09:13:39;5.90;99.90
44215;DHT22;29884;47.450;19.124;2023-02-02T09:16:08;5.90;99.90
44215;DHT22;29884;47.450;19.124;2023-02-02T09:18:34;6.00;99.90
44215;DHT22;29884;47.450;19.124;2023-02-02T09:21:02;6.00;99.90
44215;DHT22;29884;47.450;19.124;2023-02-02T09:23:30;6.10;99.90
44215;DHT22;29884;47.450;19.124;2023-02-02T09:25:56;6.20;99.90
44215;DHT22;29884;47.450;19.124;2023-02-02T09:28:22;6.20;99.90
44215;DHT22;29884;47.450;19.124;2023-02-02T09:30:47;6.20;99.90
44215;DHT22;29884;47.450;19.124;2023-02-02T09:33:13;6.30;99.90
44215;DHT22;29884;47.450;19.124;2023-02-02T09:35:39;6.40;99.90
44215;DHT22;29884;47.450;19.124;2023-02-02T09:38:05;6.40;99.90
44215;DHT22;29884;47.450;19.124;2023-02-02T09:40:32;6.50;99.90
44215;DHT22;29884;47.450;19.124;2023-02-02T09:43:42;6.60;99.90
44215;DHT22;29884;47.450;19.124;2023-02-02T09:46:27;6.60;99.90
44215;DHT22;29884;47.450;19.124;2023-02-02T09:48:59;6.70;99.90
44215;DHT22;29884;47.450;19.124;2023-02-02T09:51:29;6.80;99.90
44215;DHT22;29884;47.450;19.124;2023-02-02T09:54:02;6.90;99.90
44215;DHT22;29884;47.450;19.124;2023-02-02T09:56:40;7.10;99.90
44215;DHT22;29884;47.450;19.124;2023-02-02T09:59:16;7.20;99.90
44215;DHT22;29884;47.450;19.124;2023-02-02T10:01:43;7.10;99.90
44215;DHT22;29884;47.450;19.124;2023-02-02T10:04:37;7.10;99.90
44215;DHT22;29884;47.450;19.124;2023-02-02T10:07:12;7.20;99.90
44215;DHT22;29884;47.450;19.124;2023-02-02T10:12:46;7.20;99.90
44215;DHT22;29884;47.450;19.124;2023-02-02T10:15:38;7.20;99.90
44215;DHT22;29884;47.450;19.124;2023-02-02T10:18:11;7.10;99.90
44215;DHT22;29884;47.450;19.124;2023-02-02T10:23:33;7.10;99.90
44215;DHT22;29884;47.450;19.124;2023-02-02T10:26:09;7.20;99.90
44215;DHT22;29884;47.450;19.124;2023-02-02T10:31:30;7.10;99.90
44215;DHT22;29884;47.450;19.124;2023-02-02T10:34:17;7.10;99.90
44215;DHT22;29884;47.450;19.124;2023-02-02T10:45:30;7.40;99.90
44215;DHT22;29884;47.450;19.124;2023-02-02T10:47:56;7.40;99.90
44215;DHT22;29884;47.450;19.124;2023-02-02T10:50:22;7.40;99.90
44215;DHT22;29884;47.450;19.124;2023-02-02T10:52:54;7.50;99.90
44215;DHT22;29884;47.450;19.124;2023-02-02T11:00:46;7.60;99.90
44215;DHT22;29884;47.450;19.124;2023-02-02T11:03:17;7.50;99.90
44215;DHT22;29884;47.450;19.124;2023-02-02T11:05:44;7.60;99.90
44215;DHT22;29884;47.450;19.124;2023-02-02T11:11:30;7.50;99.90
44215;DHT22;29884;47.450;19.124;2023-02-02T11:16:33;7.30;99.90
44215;DHT22;29884;47.450;19.124;2023-02-02T11:18:59;7.40;99.90
44215;DHT22;29884;47.450;19.124;2023-02-02T11:21:32;7.40;99.90
44215;DHT22;29884;47.450;19.124;2023-02-02T11:26:54;7.30;99.90
44215;DHT22;29884;47.450;19.124;2023-02-02T11:29:42;7.50;99.90
44215;DHT22;29884;47.450;19.124;2023-02-02T11:32:29;7.40;99.90
44215;DHT22;29884;47.450;19.124;2023-02-02T11:37:29;7.30;99.90
44215;DHT22;29884;47.450;19.124;2023-02-02T11:42:49;7.40;99.90
44215;DHT22;29884;47.450;19.124;2023-02-02T11:45:41;7.40;99.90
44215;DHT22;29884;47.450;19.124;2023-02-02T11:48:15;7.50;99.90
44215;DHT22;29884;47.450;19.124;2023-02-02T11:50:52;7.70;99.90
44215;DHT22;29884;47.450;19.124;2023-02-02T11:56:08;7.40;99.90
44215;DHT22;29884;47.450;19.124;2023-02-02T12:03:52;7.30;99.90
44215;DHT22;29884;47.450;19.124;2023-02-02T12:06:27;7.20;99.90
44215;DHT22;29884;47.450;19.124;2023-02-02T12:09:00;7.20;99.90
44215;DHT22;29884;47.450;19.124;2023-02-02T12:17:45;7.30;99.90
44215;DHT22;29884;47.450;19.124;2023-02-02T12:37:01;6.90;99.90
44215;DHT22;29884;47.450;19.124;2023-02-02T12:39:42;6.90;99.90
44215;DHT22;29884;47.450;19.124;2023-02-02T12:42:31;6.90;99.90
44215;DHT22;29884;47.450;19.124;2023-02-02T12:50:25;6.80;99.90
44215;DHT22;29884;47.450;19.124;2023-02-02T13:12:54;6.60;99.90
44215;DHT22;29884;47.450;19.124;2023-02-02T13:15:23;6.70;99.90
44215;DHT22;29884;47.450;19.124;2023-02-02T13:17:56;6.70;99.90
44215;DHT22;29884;47.450;19.124;2023-02-02T13:20:48;6.70;99.90
44215;DHT22;29884;47.450;19.124;2023-02-02T13:23:35;6.70;99.90
44215;DHT22;29884;47.450;19.124;2023-02-02T13:26:15;6.70;99.90
44215;DHT22;29884;47.450;19.124;2023-02-02T13:31:18;6.70;99.90
44215;DHT22;29884;47.450;19.124;2023-02-02T13:33:48;6.60;99.90
44215;DHT22;29884;47.450;19.124;2023-02-02T13:36:25;6.60;99.90
44215;DHT22;29884;47.450;19.124;2023-02-02T13:38:56;6.60;99.90
44215;DHT22;29884;47.450;19.124;2023-02-02T13:41:22;6.60;99.90
44215;DHT22;29884;47.450;19.124;2023-02-02T13:44:03;6.50;99.90
44215;DHT22;29884;47.450;19.124;2023-02-02T13:46:49;6.50;99.90
44215;DHT22;29884;47.450;19.124;2023-02-02T13:49:27;6.50;99.90
44215;DHT22;29884;47.450;19.124;2023-02-02T14:00:37;6.50;99.90
44215;DHT22;29884;47.450;19.124;2023-02-02T14:08:32;6.40;99.90
44215;DHT22;29884;47.450;19.124;2023-02-02T14:11:00;6.50;99.90
44215;DHT22;29884;47.450;19.124;2023-02-02T14:16:42;6.50;99.90
44215;DHT22;29884;47.450;19.124;2023-02-02T14:34:53;6.40;99.90
44215;DHT22;29884;47.450;19.124;2023-02-02T14:53:27;6.30;99.90
44215;DHT22;29884;47.450;19.124;2023-02-02T14:58:37;6.30;99.90
44215;DHT22;29884;47.450;19.124;2023-02-02T15:03:55;6.30;99.90
44215;DHT22;29884;47.450;19.124;2023-02-02T15:14:58;6.20;99.90
44215;DHT22;29884;47.450;19.124;2023-02-02T15:22:41;6.20;99.90
44215;DHT22;29884;47.450;19.124;2023-02-02T15:25:21;6.10;99.90
44215;DHT22;29884;47.450;19.124;2023-02-02T15:30:34;6.10;99.90
44215;DHT22;29884;47.450;19.124;2023-02-02T15:33:08;6.10;99.90
44215;DHT22;29884;47.450;19.124;2023-02-02T15:35:37;6.00;99.90
44215;DHT22;29884;47.450;19.124;2023-02-02T15:38:06;6.00;99.90
44215;DHT22;29884;47.450;19.124;2023-02-02T15:40:35;6.00;99.90
44215;DHT22;29884;47.450;19.124;2023-02-02T15:43:04;6.00;99.90
44215;DHT22;29884;47.450;19.124;2023-02-02T15:45:54;5.90;99.90
44215;DHT22;29884;47.450;19.124;2023-02-02T15:48:32;5.90;99.90
44215;DHT22;29884;47.450;19.124;2023-02-02T15:51:04;5.90;99.90
44215;DHT22;29884;47.450;19.124;2023-02-02T15:53:44;5.80;99.90
44215;DHT22;29884;47.450;19.124;2023-02-02T15:58:55;5.70;99.90
44215;DHT22;29884;47.450;19.124;2023-02-02T16:01:22;5.70;99.90
44215;DHT22;29884;47.450;19.124;2023-02-02T16:06:32;5.60;99.90
44215;DHT22;29884;47.450;19.124;2023-02-02T16:09:02;5.50;99.90
44215;DHT22;29884;47.450;19.124;2023-02-02T16:11:28;5.50;99.90
44215;DHT22;29884;47.450;19.124;2023-02-02T16:14:04;5.40;99.90
44215;DHT22;29884;47.450;19.124;2023-02-02T16:16:33;5.40;99.90
44215;DHT22;29884;47.450;19.124;2023-02-02T16:19:09;5.40;99.90
44215;DHT22;29884;47.450;19.124;2023-02-02T16:21:48;5.30;99.90
44215;DHT22;29884;47.450;19.124;2023-02-02T16:24:27;5.30;99.90
44215;DHT22;29884;47.450;19.124;2023-02-02T16:26:57;5.20;99.90
44215;DHT22;29884;47.450;19.124;2023-02-02T16:29:24;5.10;99.90
44215;DHT22;29884;47.450;19.124;2023-02-02T16:31:53;5.10;99.90
44215;DHT22;29884;47.450;19.124;2023-02-02T16:34:52;5.10;99.90
44215;DHT22;29884;47.450;19.124;2023-02-02T16:37:22;5.00;99.90
44215;DHT22;29884;47.450;19.124;2023-02-02T16:39:51;5.00;99.90
44215;DHT22;29884;47.450;19.124;2023-02-02T16:42:28;5.10;99.90
44215;DHT22;29884;47.450;19.124;2023-02-02T16:44:56;5.00;99.90
44215;DHT22;29884;47.450;19.124;2023-02-02T16:50:36;4.90;99.90
44215;DHT22;29884;47.450;19.124;2023-02-02T16:52:59;4.90;99.90
44215;DHT22;29884;47.450;19.124;2023-02-02T16:55:27;4.90;99.90
44215;DHT22;29884;47.450;19.124;2023-02-02T16:57:54;4.90;99.90
44215;DHT22;29884;47.450;19.124;2023-02-02T17:00:23;4.90;99.90
44215;DHT22;29884;47.450;19.124;2023-02-02T17:02:51;4.90;99.90
44215;DHT22;29884;47.450;19.124;2023-02-02T17:05:20;4.90;99.90
44215;DHT22;29884;47.450;19.124;2023-02-02T17:07:50;4.90;99.90
44215;DHT22;29884;47.450;19.124;2023-02-02T17:12:44;4.90;99.90
44215;DHT22;29884;47.450;19.124;2023-02-02T17:17:45;5.00;99.90
44215;DHT22;29884;47.450;19.124;2023-02-02T17:20:15;5.00;99.90
44215;DHT22;29884;47.450;19.124;2023-02-02T17:22:43;4.90;99.90
44215;DHT22;29884;47.450;19.124;2023-02-02T17:25:15;4.90;99.90
44215;DHT22;29884;47.450;19.124;2023-02-02T17:27:42;4.80;99.90
44215;DHT22;29884;47.450;19.124;2023-02-02T17:30:14;4.80;99.90
44215;DHT22;29884;47.450;19.124;2023-02-02T17:32:40;4.80;99.90
44215;DHT22;29884;47.450;19.124;2023-02-02T17:35:26;4.70;99.90
44215;DHT22;29884;47.450;19.124;2023-02-02T17:37:53;4.70;99.90
44215;DHT22;29884;47.450;19.124;2023-02-02T17:40:20;4.80;99.90
44215;DHT22;29884;47.450;19.124;2023-02-02T17:42:49;4.80;99.90
44215;DHT22;29884;47.450;19.124;2023-02-02T17:45:19;4.70;99.90
44215;DHT22;29884;47.450;19.124;2023-02-02T17:47:45;4.70;99.90
44215;DHT22;29884;47.450;19.124;2023-02-02T17:50:11;4.70;99.90
44215;DHT22;29884;47.450;19.124;2023-02-02T17:52:37;4.60;99.90
44215;DHT22;29884;47.450;19.124;2023-02-02T17:55:23;4.60;99.90
44215;DHT22;29884;47.450;19.124;2023-02-02T17:57:51;4.60;99.90
44215;DHT22;29884;47.450;19.124;2023-02-02T18:00:19;4.60;99.90
44215;DHT22;29884;47.450;19.124;2023-02-02T18:02:46;4.60;99.90
44215;DHT22;29884;47.450;19.124;2023-02-02T18:05:13;4.70;99.90
44215;DHT22;29884;47.450;19.124;2023-02-02T18:07:40;4.70;99.90
44215;DHT22;29884;47.450;19.124;2023-02-02T18:10:06;4.70;99.90
44215;DHT22;29884;47.450;19.124;2023-02-02T18:12:32;4.60;99.90
44215;DHT22;29884;47.450;19.124;2023-02-02T18:15:03;4.50;99.90
44215;DHT22;29884;47.450;19.124;2023-02-02T18:17:30;4.70;99.90
44215;DHT22;29884;47.450;19.124;2023-02-02T18:19:56;4.70;99.90
44215;DHT22;29884;47.450;19.124;2023-02-02T18:22:22;4.70;99.90
44215;DHT22;29884;47.450;19.124;2023-02-02T18:24:48;4.60;99.90
44215;DHT22;29884;47.450;19.124;2023-02-02T18:27:14;4.70;99.90
44215;DHT22;29884;47.450;19.124;2023-02-02T18:29:40;4.70;99.90
44215;DHT22;29884;47.450;19.124;2023-02-02T18:32:07;4.60;99.90
44215;DHT22;29884;47.450;19.124;2023-02-02T18:34:34;4.60;99.90
44215;DHT22;29884;47.450;19.124;2023-02-02T18:37:00;4.60;99.90
44215;DHT22;29884;47.450;19.124;2023-02-02T18:39:27;4.60;99.90
44215;DHT22;29884;47.450;19.124;2023-02-02T18:41:52;4.50;99.90
44215;DHT22;29884;47.450;19.124;2023-02-02T18:44:18;4.50;99.90
44215;DHT22;29884;47.450;19.124;2023-02-02T18:46:44;4.50;99.90
44215;DHT22;29884;47.450;19.124;2023-02-02T18:49:10;4.40;99.90
44215;DHT22;29884;47.450;19.124;2023-02-02T18:51:36;4.50;99.90
44215;DHT22;29884;47.450;19.124;2023-02-02T18:54:01;4.50;99.90
44215;DHT22;29884;47.450;19.124;2023-02-02T18:56:28;4.50;99.90
44215;DHT22;29884;47.450;19.124;2023-02-02T18:58:54;4.70;99.90
44215;DHT22;29884;47.450;19.124;2023-02-02T19:01:20;4.70;99.90
44215;DHT22;29884;47.450;19.124;2023-02-02T19:03:52;4.70;99.90
44215;DHT22;29884;47.450;19.124;2023-02-02T19:06:18;4.60;99.90
44215;DHT22;29884;47.450;19.124;2023-02-02T19:09:04;4.50;99.90